Time;durP1;ratioP1;P1;durP2;ratioP2;P2;SDS_P1;SDS_P2;PMS_P1;PMS_P2;Temp;Humidity;BMP_temperature;BMP_pressure;BME280_temperature;BME280_humidity;BME280_pressure;Samples;Min_cycle;Max_cycle;Signal;HPM_P1;HPM_P2
2022/07/08 00:00:14;;;;;;;6.35;1.90;;;13.70;99.90;;;;;;9187348;19;20026;-70
2022/07/08 00:03:21;;;;;;;7.87;1.70;;;13.70;99.90;;;;;;9183964;19;20389;-71
2022/07/08 00:06:25;;;;;;;6.18;1.60;;;13.80;99.90;;;;;;9184675;19;20014;-72
2022/07/08 00:09:29;;;;;;;14.50;2.53;;;13.80;99.90;;;;;;9184045;19;20025;-72
2022/07/08 00:12:33;;;;;;;5.63;1.63;;;13.80;99.90;;;;;;9181982;19;20015;-70
2022/07/08 00:15:38;;;;;;;6.60;2.05;;;13.80;99.90;;;;;;9188285;19;20010;-71
2022/07/08 00:18:44;;;;;;;6.55;1.77;;;13.80;99.90;;;;;;9182939;19;20391;-71
2022/07/08 00:21:51;;;;;;;12.95;2.50;;;13.80;99.90;;;;;;9180437;19;20010;-71
2022/07/08 00:24:55;;;;;;;6.28;1.80;;;13.70;99.90;;;;;;9185791;19;20077;-70
2022/07/08 00:27:59;;;;;;;6.47;1.80;;;13.90;99.90;;;;;;9182565;19;20019;-70
2022/07/08 00:31:03;;;;;;;8.90;1.85;;;13.80;99.90;;;;;;9184284;19;20364;-70
2022/07/08 00:34:10;;;;;;;6.55;1.95;;;13.90;99.90;;;;;;9183354;19;20014;-70
2022/07/08 00:37:14;;;;;;;6.70;1.83;;;13.70;99.90;;;;;;9185101;19;20070;-71
2022/07/08 00:40:18;;;;;;;7.93;1.88;;;13.80;99.90;;;;;;9181871;19;20523;-70
2022/07/08 00:43:35;;;;;;;9.60;1.80;;;13.70;99.90;;;;;;9183119;19;20024;-70
2022/07/08 00:46:39;;;;;;;;;;;13.70;99.90;;;;;;9180936;19;20015;-71
2022/07/08 00:49:45;;;;;;;7.82;1.77;;;13.70;99.90;;;;;;9182941;19;19915;-71
2022/07/08 00:52:51;;;;;;;12.32;2.40;;;13.70;99.90;;;;;;9182254;19;20015;-71
2022/07/08 00:55:55;;;;;;;5.90;1.63;;;13.60;99.90;;;;;;9185371;19;20369;-71
2022/07/08 00:58:59;;;;;;;7.47;1.75;;;13.80;99.90;;;;;;9183860;19;20359;-70
2022/07/08 01:02:04;;;;;;;12.65;1.75;;;13.70;99.90;;;;;;9179119;19;20425;-71
2022/07/08 01:05:11;;;;;;;6.90;1.67;;;13.70;99.90;;;;;;9179857;19;20019;-70
2022/07/08 01:08:15;;;;;;;6.97;1.83;;;13.60;99.90;;;;;;9182084;19;20010;-71
2022/07/08 01:11:19;;;;;;;7.25;1.50;;;;;;;;;;9183799;19;20014;-71
2022/07/08 01:14:23;;;;;;;6.80;2.05;;;13.50;99.90;;;;;;9179344;19;20086;-71
2022/07/08 01:17:29;;;;;;;7.13;1.70;;;13.50;99.90;;;;;;9184365;19;20022;-70
2022/07/08 01:20:40;;;;;;;8.25;1.70;;;13.50;99.90;;;;;;9180091;19;20479;-70
2022/07/08 01:23:44;;;;;;;10.82;2.17;;;13.80;99.90;;;;;;9181429;19;21065;-71
2022/07/08 01:26:48;;;;;;;7.85;1.95;;;13.50;99.90;;;;;;9184139;19;20026;-70
2022/07/08 01:29:52;;;;;;;7.35;1.98;;;13.50;99.90;;;;;;9183732;19;20017;-70
2022/07/08 01:32:56;;;;;;;10.45;2.10;;;13.40;99.90;;;;;;9181217;19;20015;-70
2022/07/08 01:36:02;;;;;;;8.68;1.95;;;13.40;99.90;;;;;;9183215;19;20043;-70
2022/07/08 01:39:07;;;;;;;4.82;1.67;;;13.40;99.90;;;;;;9178406;19;20021;-70
2022/07/08 01:42:11;;;;;;;9.77;1.80;;;13.70;99.90;;;;;;9181337;19;20486;-70
2022/07/08 01:45:15;;;;;;;7.97;1.85;;;13.30;99.90;;;;;;9181473;19;20021;-71
2022/07/08 01:48:19;;;;;;;9.85;2.50;;;13.30;99.90;;;;;;9179835;19;20019;-71
2022/07/08 01:51:25;;;;;;;7.20;1.80;;;13.20;99.90;;;;;;9181785;19;20074;-69
2022/07/08 01:54:29;;;;;;;5.63;1.75;;;;;;;;;;9184477;19;20019;-69
2022/07/08 01:57:34;;;;;;;10.52;2.35;;;;;;;;;;9184053;19;20018;-70
2022/07/08 02:00:38;;;;;;;8.23;2.20;;;13.20;99.90;;;;;;9183507;19;20015;-70
2022/07/08 02:03:43;;;;;;;10.70;1.83;;;13.20;99.90;;;;;;9180360;19;20018;-71
2022/07/08 02:06:49;;;;;;;11.15;2.08;;;13.10;99.90;;;;;;9177641;19;20352;-70
2022/07/08 02:09:53;;;;;;;10.60;1.98;;;;;;;;;;9178087;19;20030;-70
2022/07/08 02:12:55;;;;;;;10.60;2.22;;;13.20;99.90;;;;;;9178620;19;20015;-70
2022/07/08 02:15:59;;;;;;;11.18;2.13;;;13.10;99.90;;;;;;9181027;19;20010;-70
2022/07/08 02:19:03;;;;;;;8.30;2.00;;;;;;;;;;9179485;19;20017;-70
2022/07/08 02:22:10;;;;;;;10.18;1.90;;;13.00;99.90;;;;;;9182572;19;20086;-70
2022/07/08 02:25:14;;;;;;;;;;;12.90;99.90;;;;;;9181333;19;20503;-70
2022/07/08 02:28:17;;;;;;;8.43;2.20;;;12.90;99.90;;;;;;9178504;19;19938;-70
2022/07/08 02:31:21;;;;;;;8.93;1.80;;;12.90;99.90;;;;;;9177735;19;20013;-71
2022/07/08 02:34:25;;;;;;;9.40;2.03;;;12.80;99.90;;;;;;9182180;19;20453;-70
2022/07/08 02:37:32;;;;;;;6.28;1.83;;;12.90;99.90;;;;;;9180670;19;20026;-70
2022/07/08 02:40:36;;;;;;;7.32;2.15;;;13.00;99.90;;;;;;9178197;19;20497;-70
2022/07/08 02:43:39;;;;;;;10.15;2.03;;;13.00;99.90;;;;;;9176611;19;20014;-70
2022/07/08 02:46:44;;;;;;;7.72;2.00;;;13.00;99.90;;;;;;9177904;19;20086;-70
2022/07/08 02:49:47;;;;;;;10.15;2.10;;;12.90;99.90;;;;;;9176308;19;20019;-70
2022/07/08 02:52:54;;;;;;;8.18;1.70;;;13.00;99.90;;;;;;9181380;19;20439;-70
2022/07/08 02:55:58;;;;;;;10.75;2.25;;;12.90;99.90;;;;;;9180981;19;20483;-70
2022/07/08 02:59:02;;;;;;;14.57;2.50;;;;;;;;;;9180211;19;20015;-70
2022/07/08 03:02:07;;;;;;;10.90;1.92;;;;;;;;;;9178493;19;20014;-70
2022/07/08 03:05:12;;;;;;;10.07;1.85;;;12.70;99.90;;;;;;9182673;19;20029;-70
2022/07/08 03:08:18;;;;;;;10.45;1.73;;;12.70;99.90;;;;;;9188650;19;20018;-70
2022/07/08 03:11:22;;;;;;;7.05;2.17;;;12.70;99.90;;;;;;9182781;19;20351;-70
2022/07/08 03:14:26;;;;;;;10.23;2.30;;;12.70;99.90;;;;;;9186425;19;20015;-70
2022/07/08 03:17:30;;;;;;;9.32;2.00;;;12.70;99.90;;;;;;9185170;19;20695;-70
2022/07/08 03:20:34;;;;;;;9.40;2.00;;;12.60;99.90;;;;;;9184982;19;20385;-71
2022/07/08 03:23:41;;;;;;;5.45;1.83;;;12.60;99.90;;;;;;9187600;19;20018;-70
2022/07/08 03:26:45;;;;;;;10.50;2.00;;;12.50;99.90;;;;;;9185579;19;20023;-70
2022/07/08 03:29:49;;;;;;;8.45;2.05;;;12.40;99.90;;;;;;9184667;19;20014;-69
2022/07/08 03:32:52;;;;;;;15.10;3.10;;;12.50;99.90;;;;;;9187769;19;20014;-70
2022/07/08 03:35:57;;;;;;;9.73;1.92;;;12.60;99.90;;;;;;9186315;19;20375;-70
2022/07/08 03:39:03;;;;;;;9.32;2.00;;;12.50;99.90;;;;;;9187884;19;20487;-70
2022/07/08 03:42:08;;;;;;;6.65;2.53;;;12.50;99.90;;;;;;9182976;19;20026;-70
2022/07/08 03:45:12;;;;;;;5.97;1.95;;;12.50;99.90;;;;;;9187100;19;20018;-70
2022/07/08 03:48:16;;;;;;;9.95;2.15;;;12.50;99.90;;;;;;9185395;19;20505;-70
2022/07/08 03:51:22;;;;;;;9.77;2.40;;;12.50;99.90;;;;;;9183952;19;20014;-70
2022/07/08 03:54:29;;;;;;;6.40;2.05;;;12.40;99.90;;;;;;9184201;19;20011;-70
2022/07/08 03:57:33;;;;;;;11.90;2.30;;;12.50;99.90;;;;;;9184217;19;20015;-70
2022/07/08 04:00:37;;;;;;;10.75;2.60;;;;;;;;;;9184420;19;20006;-70
2022/07/08 04:03:41;;;;;;;10.18;2.08;;;12.40;99.90;;;;;;9182273;19;20086;-70
2022/07/08 04:06:46;;;;;;;7.30;2.63;;;;;;;;;;9182961;19;20018;-71
2022/07/08 04:09:52;;;;;;;12.23;2.38;;;12.40;99.90;;;;;;9185153;19;20018;-71
2022/07/08 04:12:56;;;;;;;10.13;2.33;;;12.40;99.90;;;;;;9181643;19;20014;-70
2022/07/08 04:16:00;;;;;;;7.88;2.10;;;;;;;;;;9184287;19;20010;-70
2022/07/08 04:19:04;;;;;;;8.70;2.40;;;12.40;99.90;;;;;;9185915;19;20026;-70
2022/07/08 04:22:08;;;;;;;9.30;2.17;;;12.30;99.90;;;;;;9180125;19;20364;-71
2022/07/08 04:25:15;;;;;;;8.63;2.17;;;12.50;99.90;;;;;;9182484;19;20014;-70
2022/07/08 04:28:19;;;;;;;10.23;2.38;;;12.40;99.90;;;;;;9184666;19;20053;-70
2022/07/08 04:31:23;;;;;;;11.63;2.10;;;12.50;99.90;;;;;;9182649;19;20043;-71
2022/07/08 04:34:26;;;;;;;10.45;2.15;;;12.50;99.90;;;;;;9184019;19;20010;-70
2022/07/08 04:37:31;;;;;;;7.70;1.80;;;;;;;;;;9182199;19;20026;-71
2022/07/08 04:40:38;;;;;;;10.90;2.08;;;12.40;99.90;;;;;;9185862;19;20021;-70
2022/07/08 04:43:43;;;;;;;10.30;2.17;;;;;;;;;;9181359;19;20090;-71
2022/07/08 04:46:47;;;;;;;8.57;2.75;;;12.60;99.90;;;;;;9181449;19;20028;-71
2022/07/08 04:49:51;;;;;;;10.10;2.33;;;12.70;99.90;;;;;;9184491;19;20090;-70
2022/07/08 04:52:55;;;;;;;12.48;2.20;;;12.70;99.90;;;;;;9184794;19;20094;-70
2022/07/08 04:56:02;;;;;;;8.63;2.53;;;12.80;99.90;;;;;;9179917;19;20392;-72
2022/07/08 04:59:06;;;;;;;8.50;2.47;;;12.80;99.90;;;;;;9183258;19;20021;-71
2022/07/08 05:02:10;;;;;;;6.18;2.33;;;12.80;99.90;;;;;;9179030;19;20018;-70
2022/07/08 05:05:14;;;;;;;8.45;2.40;;;12.80;99.90;;;;;;9186956;19;20043;-70
2022/07/08 05:08:18;;;;;;;10.68;1.80;;;12.80;99.90;;;;;;9185487;19;20073;-70
2022/07/08 05:11:25;;;;;;;8.45;2.40;;;12.80;99.90;;;;;;9181643;19;20010;-70
2022/07/08 05:14:29;;;;;;;9.70;2.65;;;12.80;99.90;;;;;;9187545;19;20035;-70
2022/07/08 05:17:33;;;;;;;9.27;2.17;;;;;;;;;;9189550;19;20011;-70
2022/07/08 05:20:37;;;;;;;7.68;2.00;;;12.90;99.90;;;;;;9187229;19;20018;-70
2022/07/08 05:23:41;;;;;;;12.85;2.30;;;;;;;;;;9180520;19;20512;-70
2022/07/08 05:26:47;;;;;;;7.70;1.90;;;13.00;99.90;;;;;;9182950;19;20364;-71
2022/07/08 05:29:51;;;;;;;10.07;2.42;;;13.00;99.90;;;;;;9180613;19;20018;-71
2022/07/08 05:32:55;;;;;;;7.97;2.13;;;13.20;99.90;;;;;;9180350;19;20499;-71
2022/07/08 05:35:59;;;;;;;11.77;2.50;;;13.10;99.90;;;;;;9178268;19;20387;-71
2022/07/08 05:39:04;;;;;;;10.88;2.30;;;13.10;99.90;;;;;;9181910;19;20018;-70
2022/07/08 05:42:12;;;;;;;10.93;2.40;;;13.10;99.90;;;;;;9176083;19;20371;-70
2022/07/08 05:45:16;;;;;;;12.60;2.63;;;13.20;99.90;;;;;;9176355;19;20020;-70
2022/07/08 05:48:21;;;;;;;9.48;2.15;;;13.20;99.90;;;;;;9180798;19;20014;-70
2022/07/08 05:51:25;;;;;;;10.30;2.17;;;13.30;99.90;;;;;;9178376;19;20031;-71
2022/07/08 05:54:29;;;;;;;10.32;2.15;;;13.10;99.90;;;;;;9179620;19;20018;-72
2022/07/08 05:57:35;;;;;;;10.23;2.35;;;13.40;99.90;;;;;;9174701;19;20491;-71
2022/07/08 06:00:39;;;;;;;10.30;2.60;;;13.30;99.90;;;;;;9177232;19;20109;-71
2022/07/08 06:03:43;;;;;;;8.68;2.33;;;13.30;99.90;;;;;;9176903;19;20030;-72
2022/07/08 06:06:47;;;;;;;6.80;2.22;;;13.60;99.90;;;;;;9177496;19;20037;-73
2022/07/08 06:09:53;;;;;;;10.38;2.35;;;13.70;99.90;;;;;;9177825;19;20082;-73
2022/07/08 06:13:00;;;;;;;14.13;2.70;;;13.70;99.90;;;;;;9176724;19;20018;-72
2022/07/08 06:16:03;;;;;;;9.35;2.33;;;13.70;99.90;;;;;;9176417;19;20097;-71
2022/07/08 06:19:08;;;;;;;7.50;2.13;;;13.70;99.90;;;;;;9180456;19;20026;-72
2022/07/08 06:22:12;;;;;;;7.97;2.47;;;13.80;99.90;;;;;;9178433;19;20022;-71
2022/07/08 06:25:15;;;;;;;9.68;2.70;;;13.90;99.90;;;;;;9174683;19;20515;-72
2022/07/08 06:28:22;;;;;;;11.63;2.83;;;13.90;99.90;;;;;;9178072;19;20404;-72
2022/07/08 06:31:26;;;;;;;9.75;2.40;;;13.80;99.90;;;;;;9174601;19;20015;-71
2022/07/08 06:34:30;;;;;;;8.80;2.28;;;13.70;99.90;;;;;;9179081;19;20483;-71
2022/07/08 06:37:34;;;;;;;9.05;2.42;;;13.90;99.90;;;;;;9177670;19;20475;-72
2022/07/08 06:40:38;;;;;;;11.15;3.10;;;;;;;;;;9191420;19;20520;-71
2022/07/08 06:43:45;;;;;;;12.00;2.88;;;14.00;99.90;;;;;;9185324;19;20010;-72
2022/07/08 06:46:49;;;;;;;11.80;2.75;;;14.10;99.90;;;;;;9187286;19;20457;-72
2022/07/08 06:49:55;;;;;;;9.15;2.47;;;14.10;99.90;;;;;;9185949;19;20013;-71
2022/07/08 06:52:59;;;;;;;8.02;1.98;;;14.30;99.90;;;;;;9186431;19;20070;-71
2022/07/08 06:56:03;;;;;;;10.70;2.42;;;14.30;99.90;;;;;;9189463;19;20032;-71
2022/07/08 06:59:10;;;;;;;12.52;2.90;;;14.40;99.90;;;;;;9189720;19;20074;-72
2022/07/08 07:02:14;;;;;;;8.13;2.35;;;14.40;99.90;;;;;;9187791;19;20037;-71
2022/07/08 07:05:19;;;;;;;7.57;2.30;;;14.50;99.90;;;;;;9187850;19;20015;-71
2022/07/08 07:08:23;;;;;;;11.55;2.38;;;14.50;99.90;;;;;;9186606;19;20039;-71
2022/07/08 07:11:27;;;;;;;7.57;2.22;;;14.50;99.90;;;;;;9186542;19;20019;-71
2022/07/08 07:14:34;;;;;;;10.73;2.90;;;14.50;99.90;;;;;;9189286;19;20031;-71
2022/07/08 07:17:38;;;;;;;12.95;2.65;;;14.70;99.90;;;;;;9185330;19;20011;-71
2022/07/08 07:20:42;;;;;;;9.18;2.50;;;14.40;99.90;;;;;;9189510;19;20055;-71
2022/07/08 07:23:46;;;;;;;9.55;2.50;;;14.20;99.90;;;;;;9181814;19;20061;-71
2022/07/08 07:26:50;;;;;;;12.40;2.30;;;14.80;99.90;;;;;;9184181;19;20083;-71
2022/07/08 07:29:56;;;;;;;8.82;2.50;;;14.90;99.90;;;;;;9187019;19;20015;-71
2022/07/08 07:33:00;;;;;;;7.85;2.45;;;14.80;99.90;;;;;;9185394;19;20021;-71
2022/07/08 07:36:04;;;;;;;10.35;2.80;;;14.80;99.90;;;;;;9189190;19;20022;-73
2022/07/08 07:39:09;;;;;;;11.77;2.42;;;15.00;99.90;;;;;;9187999;19;20432;-71
2022/07/08 07:42:13;;;;;;;10.60;2.40;;;14.80;99.90;;;;;;9185836;19;20015;-71
2022/07/08 07:45:19;;;;;;;12.95;2.90;;;15.10;99.90;;;;;;9186616;19;20452;-72
2022/07/08 07:48:24;;;;;;;10.27;2.83;;;;;;;;;;9188759;19;20014;-71
2022/07/08 07:51:28;;;;;;;10.63;3.22;;;14.80;99.90;;;;;;9184573;19;20339;-71
2022/07/08 07:54:32;;;;;;;13.80;2.70;;;14.80;99.90;;;;;;9183520;19;20015;-71
2022/07/08 07:57:37;;;;;;;6.40;2.00;;;14.80;99.90;;;;;;9186455;19;20022;-71
2022/07/08 08:00:43;;;;;;;24.23;9.52;;;15.30;99.90;;;;;;9187820;19;20021;-72
2022/07/08 08:03:47;;;;;;;17.33;7.60;;;14.70;99.90;;;;;;9184805;19;20030;-71
2022/07/08 08:06:51;;;;;;;13.35;3.22;;;14.90;99.90;;;;;;9185465;19;20026;-72
2022/07/08 08:09:55;;;;;;;5.38;2.30;;;14.70;99.90;;;;;;9187532;19;20020;-72
2022/07/08 08:12:59;;;;;;;9.43;2.65;;;15.00;99.90;;;;;;9186120;19;20018;-71
2022/07/08 08:16:07;;;;;;;9.10;2.45;;;15.00;99.90;;;;;;9186877;19;20028;-72
2022/07/08 08:19:11;;;;;;;7.82;2.40;;;15.00;99.90;;;;;;9185289;19;20384;-72
2022/07/08 08:22:15;;;;;;;9.38;2.45;;;15.20;99.90;;;;;;9186759;19;20015;-72
2022/07/08 08:25:19;;;;;;;5.55;2.10;;;15.00;99.90;;;;;;9186831;19;20011;-72
2022/07/08 08:28:24;;;;;;;10.75;2.33;;;15.00;99.90;;;;;;9182517;19;20011;-72
2022/07/08 08:31:31;;;;;;;10.07;3.17;;;15.00;99.90;;;;;;9185537;19;20025;-72
2022/07/08 08:34:35;;;;;;;12.95;2.50;;;15.50;99.90;;;;;;9183808;19;20139;-72
2022/07/08 08:37:39;;;;;;;13.30;3.05;;;15.10;99.90;;;;;;9185900;19;20049;-72
2022/07/08 08:40:44;;;;;;;5.82;2.47;;;15.10;99.90;;;;;;9184752;19;20017;-72
2022/07/08 08:43:51;;;;;;;7.28;2.20;;;14.90;99.90;;;;;;9188145;19;20047;-72
2022/07/08 08:46:59;;;;;;;7.63;2.53;;;15.10;99.90;;;;;;9183796;19;20014;-72
2022/07/08 08:53:29;;;;;;;9.35;2.00;;;15.30;99.90;;;;;;9173848;19;20022;-72
2022/07/08 08:56:33;;;;;;;8.60;2.47;;;15.30;99.90;;;;;;9176775;19;20359;-72
2022/07/08 08:59:38;;;;;;;7.53;2.00;;;15.30;99.90;;;;;;9183790;19;20498;-72
2022/07/08 09:02:44;;;;;;;12.13;2.55;;;15.30;99.90;;;;;;9182190;19;20051;-72
2022/07/08 09:05:49;;;;;;;7.38;2.38;;;15.20;99.90;;;;;;9173867;19;20094;-72
2022/07/08 09:08:53;;;;;;;7.65;2.22;;;15.40;99.90;;;;;;9177140;19;20025;-73
2022/07/08 09:11:57;;;;;;;8.85;2.50;;;15.30;99.90;;;;;;9179653;19;20047;-72
2022/07/08 09:15:04;;;;;;;6.25;2.20;;;15.40;99.90;;;;;;9180924;19;20082;-71
2022/07/08 09:18:12;;;;;;;8.48;2.38;;;15.40;99.90;;;;;;9181317;19;20352;-72
2022/07/08 09:21:16;;;;;;;8.13;2.50;;;14.90;99.90;;;;;;9182954;19;20355;-72
2022/07/08 09:24:21;;;;;;;6.45;2.38;;;15.40;99.90;;;;;;9182069;19;20019;-72
2022/07/08 09:27:25;;;;;;;5.47;2.20;;;15.40;99.90;;;;;;9179006;19;20086;-72
2022/07/08 09:30:32;;;;;;;9.68;2.15;;;15.30;99.90;;;;;;9184556;19;20022;-72
2022/07/08 09:33:38;;;;;;;8.93;2.20;;;17.30;99.90;;;;;;9180827;19;20010;-72
2022/07/08 09:36:49;;;;;;;;;;;15.50;99.90;;;;;;9182935;19;20476;-72
2022/07/08 09:39:53;;;;;;;9.15;2.65;;;15.60;99.90;;;;;;9182890;19;19926;-72
2022/07/08 09:42:57;;;;;;;8.50;3.33;;;15.60;99.90;;;;;;9178692;19;20648;-72
2022/07/08 09:46:06;;;;;;;17.40;4.20;;;15.70;99.90;;;;;;9180757;19;20538;-72
2022/07/08 09:49:29;;;;;;;4.72;2.10;;;15.80;99.90;;;;;;9183188;19;20043;-72
2022/07/08 09:52:32;;;;;;;8.10;2.75;;;15.90;99.90;;;;;;9180090;19;20018;-72
2022/07/08 09:55:41;;;;;;;7.07;2.85;;;16.00;99.90;;;;;;9176534;19;20017;-72
2022/07/08 09:58:46;;;;;;;15.30;3.80;;;16.10;99.90;;;;;;9182632;19;20483;-72
2022/07/08 10:01:51;;;;;;;14.50;3.17;;;16.20;99.90;;;;;;9180593;19;20037;-72
2022/07/08 10:04:58;;;;;;;9.48;2.63;;;16.10;99.90;;;;;;9180822;19;20421;-72
2022/07/08 10:08:02;;;;;;;7.18;2.60;;;16.30;99.90;;;;;;9177834;19;20022;-72
2022/07/08 10:11:09;;;;;;;9.88;4.00;;;16.20;99.90;;;;;;9178417;19;20011;-72
2022/07/08 10:14:13;;;;;;;14.63;3.55;;;16.30;99.90;;;;;;9179111;19;20062;-72
2022/07/08 10:17:21;;;;;;;8.52;3.13;;;16.40;99.90;;;;;;9177276;19;20018;-72
2022/07/08 10:20:32;;;;;;;8.88;2.90;;;16.20;99.90;;;;;;9181351;19;20015;-72
2022/07/08 10:23:41;;;;;;;7.18;2.70;;;16.30;99.90;;;;;;9177471;19;20043;-72
2022/07/08 10:26:45;;;;;;;11.18;3.42;;;16.30;99.90;;;;;;9178367;19;20400;-72
2022/07/08 10:29:52;;;;;;;7.32;2.53;;;16.10;99.90;;;;;;9181752;19;20044;-72
2022/07/08 10:32:56;;;;;;;10.50;2.95;;;16.60;99.90;;;;;;9181651;19;20025;-72
2022/07/08 10:36:07;;;;;;;13.50;2.83;;;16.50;99.90;;;;;;9181072;19;20058;-71
2022/07/08 10:39:13;;;;;;;7.47;2.40;;;16.80;99.90;;;;;;9177002;19;20011;-72
2022/07/08 10:42:23;;;;;;;7.85;2.60;;;16.90;99.90;;;;;;9176552;19;20021;-72
2022/07/08 10:45:27;;;;;;;4.50;2.55;;;17.00;99.90;;;;;;9174478;19;20841;-72
2022/07/08 10:48:31;;;;;;;9.35;4.00;;;17.10;99.90;;;;;;9178506;19;20015;-72
2022/07/08 10:51:49;;;;;;;9.07;3.13;;;17.00;99.90;;;;;;9173038;19;20022;-72
2022/07/08 10:55:10;;;;;;;7.18;2.60;;;17.40;99.90;;;;;;9180812;19;20014;-72
2022/07/08 10:58:17;;;;;;;14.05;4.28;;;17.50;99.90;;;;;;9177356;19;20010;-74
2022/07/08 11:01:27;;;;;;;12.27;3.72;;;17.50;99.90;;;;;;9179725;19;20462;-72
2022/07/08 11:04:34;;;;;;;9.38;2.70;;;17.70;99.90;;;;;;9177335;19;20018;-72
2022/07/08 11:07:41;;;;;;;8.60;2.92;;;17.80;99.90;;;;;;9178122;19;20014;-72
2022/07/08 11:10:46;;;;;;;7.68;2.38;;;17.70;99.90;;;;;;9176948;19;20159;-71
2022/07/08 11:13:51;;;;;;;10.05;2.70;;;17.80;99.90;;;;;;9178706;19;20010;-73
2022/07/08 11:16:56;;;;;;;9.43;2.90;;;17.90;99.90;;;;;;9176102;19;20006;-72
2022/07/08 11:20:02;;;;;;;6.20;2.42;;;18.00;99.90;;;;;;9175365;19;20021;-72
2022/07/08 11:23:09;;;;;;;6.45;2.22;;;18.20;99.90;;;;;;9180851;19;20352;-73
2022/07/08 11:26:20;;;;;;;8.02;2.50;;;18.30;99.90;;;;;;9183957;19;20023;-73
2022/07/08 11:29:25;;;;;;;12.13;3.70;;;18.60;99.90;;;;;;9190238;19;20381;-73
2022/07/08 11:32:30;;;;;;;9.90;2.40;;;18.80;99.90;;;;;;9185116;19;20022;-72
2022/07/08 11:35:34;;;;;;;11.25;2.60;;;18.80;99.90;;;;;;9186758;19;20022;-72
2022/07/08 11:38:41;;;;;;;10.68;2.95;;;18.70;99.90;;;;;;9188881;19;20019;-72
2022/07/08 11:41:45;;;;;;;11.55;2.70;;;18.80;99.90;;;;;;9186905;19;20015;-72
2022/07/08 11:44:50;;;;;;;6.50;2.40;;;19.00;99.90;;;;;;9193171;19;20351;-73
2022/07/08 11:47:54;;;;;;;8.15;2.38;;;19.00;99.90;;;;;;9185752;19;20014;-72
2022/07/08 11:51:00;;;;;;;5.57;2.85;;;19.20;99.90;;;;;;9182133;19;20015;-72
2022/07/08 11:54:09;;;;;;;6.22;2.78;;;19.30;99.90;;;;;;9186021;19;20024;-72
2022/07/08 11:57:13;;;;;;;6.63;2.88;;;19.30;99.90;;;;;;9185702;19;20386;-73
2022/07/08 12:00:17;;;;;;;8.23;2.38;;;19.50;99.90;;;;;;9182491;19;20467;-72
2022/07/08 12:03:21;;;;;;;7.68;2.63;;;19.20;99.90;;;;;;9187906;19;20047;-73
2022/07/08 12:06:26;;;;;;;11.70;3.22;;;19.20;99.90;;;;;;9184587;19;20024;-72
2022/07/08 12:09:33;;;;;;;10.18;2.40;;;19.30;99.90;;;;;;9182262;19;20010;-72
2022/07/08 12:12:37;;;;;;;6.40;2.58;;;19.50;99.90;;;;;;9183337;19;20082;-72
2022/07/08 12:15:41;;;;;;;11.65;2.90;;;19.60;99.90;;;;;;9181254;19;20018;-72
2022/07/08 12:18:47;;;;;;;6.03;2.40;;;19.80;99.90;;;;;;9177135;19;20019;-74
2022/07/08 12:21:51;;;;;;;5.60;2.45;;;19.80;99.90;;;;;;9179896;19;20025;-73
2022/07/08 12:25:04;;;;;;;7.15;3.17;;;19.70;99.90;;;;;;9184236;19;20011;-73
2022/07/08 12:28:08;;;;;;;10.38;2.60;;;19.70;99.90;;;;;;9184047;19;20019;-73
2022/07/08 12:31:12;;;;;;;6.45;2.53;;;19.90;99.90;;;;;;9183301;19;20003;-73
2022/07/08 12:34:27;;;;;;;10.90;2.83;;;19.90;99.90;;;;;;9183335;19;20064;-72
2022/07/08 12:37:31;;;;;;;9.07;2.40;;;19.90;99.90;;;;;;9179907;19;20078;-72
2022/07/08 12:40:45;;;;;;;9.73;2.60;;;19.90;99.90;;;;;;9180282;19;20014;-72
2022/07/08 12:43:49;;;;;;;5.93;2.63;;;19.80;99.90;;;;;;9178727;19;20086;-72
2022/07/08 12:46:54;;;;;;;6.70;2.83;;;20.00;99.90;;;;;;9179639;19;20047;-71
2022/07/08 12:49:59;;;;;;;9.25;2.65;;;20.20;99.90;;;;;;9178557;19;20011;-72
2022/07/08 12:53:05;;;;;;;9.52;2.80;;;20.20;99.90;;;;;;9181571;19;20015;-73
2022/07/08 12:56:11;;;;;;;4.88;2.58;;;20.30;99.90;;;;;;9178963;19;20021;-73
2022/07/08 12:59:15;;;;;;;8.27;2.75;;;20.40;99.90;;;;;;9178648;19;20019;-72
2022/07/08 13:02:19;;;;;;;8.13;2.70;;;20.70;99.90;;;;;;9180188;19;20413;-71
2022/07/08 13:05:23;;;;;;;6.53;2.55;;;20.90;99.90;;;;;;9180970;19;20010;-74
2022/07/08 13:08:27;;;;;;;6.72;2.53;;;20.90;99.90;;;;;;9179482;19;20047;-75
2022/07/08 13:11:34;;;;;;;10.50;2.90;;;21.10;99.90;;;;;;9181362;19;20351;-72
2022/07/08 13:14:38;;;;;;;12.10;3.88;;;20.90;99.90;;;;;;9181480;19;20078;-76
2022/07/08 13:17:42;;;;;;;4.85;2.33;;;19.50;99.90;;;;;;9181627;19;20011;-77
2022/07/08 13:20:46;;;;;;;9.75;2.55;;;21.00;99.90;;;;;;9177933;19;20014;-80
2022/07/08 13:23:51;;;;;;;5.93;2.92;;;20.90;99.90;;;;;;9179287;19;20038;-71
2022/07/08 13:26:57;;;;;;;10.02;2.95;;;20.70;99.90;;;;;;9181322;19;20014;-73
2022/07/08 13:30:01;;;;;;;11.05;2.90;;;20.50;99.90;;;;;;9180800;19;20023;-72
2022/07/08 13:33:05;;;;;;;8.23;2.50;;;20.60;99.90;;;;;;9180874;19;20041;-73
2022/07/08 13:36:09;;;;;;;5.38;2.50;;;20.90;99.90;;;;;;9181930;19;20014;-71
2022/07/08 13:39:13;;;;;;;6.85;2.80;;;20.70;99.90;;;;;;9178449;19;20018;-70
2022/07/08 13:42:20;;;;;;;5.22;2.22;;;20.80;99.90;;;;;;9180168;19;20019;-71
2022/07/08 13:45:24;;;;;;;5.95;2.40;;;20.80;99.90;;;;;;9178067;19;20178;-72
2022/07/08 13:48:28;;;;;;;6.70;2.80;;;21.10;99.90;;;;;;9177753;19;20049;-75
2022/07/08 13:51:32;;;;;;;9.02;2.85;;;20.80;99.90;;;;;;9175639;19;20010;-74
2022/07/08 13:54:36;;;;;;;5.57;3.13;;;21.00;99.90;;;;;;9182068;19;20518;-73
2022/07/08 13:57:43;;;;;;;4.95;2.55;;;21.00;99.90;;;;;;9177963;19;20475;-74
2022/07/08 14:00:47;;;;;;;8.75;3.13;;;20.80;99.90;;;;;;9176105;19;20022;-75
2022/07/08 14:03:51;;;;;;;9.38;4.20;;;20.80;99.90;;;;;;9176585;19;20018;-74
2022/07/08 14:06:55;;;;;;;13.05;4.00;;;20.80;99.90;;;;;;9172931;19;20047;-72
2022/07/08 14:09:59;;;;;;;8.18;2.50;;;20.80;99.90;;;;;;9178570;19;20039;-75
2022/07/08 14:13:05;;;;;;;5.00;2.50;;;21.10;99.90;;;;;;9180997;19;20021;-82
2022/07/08 14:16:10;;;;;;;7.35;2.83;;;21.40;99.90;;;;;;9175137;19;20050;-74
2022/07/08 14:19:14;;;;;;;6.47;2.60;;;21.30;99.90;;;;;;9178500;19;20011;-76
2022/07/08 14:22:18;;;;;;;6.80;2.55;;;21.50;99.90;;;;;;9179834;19;20486;-83
2022/07/08 14:25:23;;;;;;;7.43;2.63;;;21.80;99.90;;;;;;9178714;19;20061;-84
2022/07/08 14:28:30;;;;;;;6.97;2.47;;;21.50;99.90;;;;;;9179315;19;20018;-79
2022/07/08 14:31:34;;;;;;;10.57;2.80;;;21.40;99.90;;;;;;9180403;19;20019;-79
2022/07/08 14:34:39;;;;;;;14.05;4.15;;;21.30;99.90;;;;;;9178016;19;20015;-71
2022/07/08 14:37:43;;;;;;;6.78;2.42;;;21.30;99.90;;;;;;9174560;19;20015;-73
2022/07/08 14:40:47;;;;;;;9.93;3.63;;;21.80;99.90;;;;;;9176455;19;20022;-79
2022/07/08 14:43:54;;;;;;;7.30;2.55;;;21.80;99.90;;;;;;9179655;19;20018;-79
2022/07/08 14:46:58;;;;;;;5.53;2.60;;;21.70;99.90;;;;;;9171722;19;20349;-76
2022/07/08 14:50:02;;;;;;;6.18;2.50;;;21.40;99.90;;;;;;9175647;19;20019;-77
2022/07/08 14:53:06;;;;;;;9.45;4.05;;;21.50;99.90;;;;;;9179714;19;20025;-79
2022/07/08 14:56:10;;;;;;;12.27;3.13;;;21.60;99.90;;;;;;9178103;19;20018;-79
2022/07/08 14:59:17;;;;;;;10.45;3.25;;;21.80;99.90;;;;;;9186802;19;20082;-79
2022/07/08 15:02:21;;;;;;;9.38;3.17;;;21.80;99.90;;;;;;9188280;19;20018;-74
2022/07/08 15:05:25;;;;;;;14.00;3.67;;;22.40;99.90;;;;;;9187351;19;20038;-75
2022/07/08 15:08:29;;;;;;;9.68;2.90;;;22.40;99.90;;;;;;9187682;19;20074;-76
2022/07/08 15:11:33;;;;;;;8.70;2.45;;;22.90;99.90;;;;;;9185313;19;20504;-74
2022/07/08 15:14:42;;;;;;;8.52;3.05;;;22.40;99.90;;;;;;9182250;19;20026;-77
2022/07/08 15:17:46;;;;;;;7.03;3.00;;;22.70;99.90;;;;;;9185325;19;20018;-78
2022/07/08 15:20:51;;;;;;;10.52;4.03;;;22.40;99.90;;;;;;9187954;19;20018;-77
2022/07/08 15:23:55;;;;;;;11.02;3.83;;;22.40;99.90;;;;;;9185217;19;20067;-77
2022/07/08 15:27:00;;;;;;;11.23;3.95;;;22.40;99.90;;;;;;9182108;19;20018;-76
2022/07/08 15:30:07;;;;;;;9.55;3.38;;;22.50;99.90;;;;;;9185608;19;20387;-76
2022/07/08 15:33:12;;;;;;;14.75;5.40;;;23.00;99.90;;;;;;9183510;19;20385;-76
2022/07/08 15:36:18;;;;;;;7.25;2.90;;;22.80;99.90;;;;;;9188418;19;20526;-76
2022/07/08 15:39:22;;;;;;;7.95;3.67;;;22.70;99.90;;;;;;9184657;19;20019;-77
2022/07/08 15:42:26;;;;;;;8.10;2.70;;;22.70;99.90;;;;;;9184975;19;20073;-77
2022/07/08 15:45:33;;;;;;;9.40;2.92;;;23.00;99.90;;;;;;9187832;19;20047;-77
2022/07/08 15:48:37;;;;;;;;;;;22.70;99.90;;;;;;9186033;19;20028;-77
2022/07/08 15:51:41;;;;;;;14.60;3.63;;;22.70;99.90;;;;;;9181896;19;19927;-77
2022/07/08 15:54:45;;;;;;;7.63;3.05;;;22.20;99.90;;;;;;9185337;19;20282;-77
2022/07/08 15:57:50;;;;;;;8.20;2.50;;;22.20;99.90;;;;;;9184314;19;20082;-76
2022/07/08 16:00:56;;;;;;;13.30;3.13;;;22.20;99.90;;;;;;9184693;19;20010;-77
2022/07/08 16:04:01;;;;;;;10.52;2.80;;;22.60;99.90;;;;;;9183544;19;20018;-76
2022/07/08 16:07:13;;;;;;;10.63;3.53;;;22.80;99.90;;;;;;9180787;19;20044;-77
2022/07/08 16:10:17;;;;;;;12.50;5.78;;;23.00;99.90;;;;;;9183515;19;20415;-77